sensor_id;sensor_type;location;lat;lon;timestamp;pressure;altitude;pressure_sealevel;temperature;humidity
33422;BME280;19763;55.798;37.782;2023-05-29T00:00:17;150339.13;;;12.13;67.64
33422;BME280;19763;55.798;37.782;2023-05-29T00:02:43;150340.41;;;12.14;68.87
33422;BME280;19763;55.798;37.782;2023-05-29T00:05:10;150350.69;;;12.18;68.61
33422;BME280;19763;55.798;37.782;2023-05-29T00:07:37;150348.09;;;12.17;69.04
33422;BME280;19763;55.798;37.782;2023-05-29T00:10:04;150341.72;;;12.14;68.29
33422;BME280;19763;55.798;37.782;2023-05-29T00:12:29;150341.72;;;12.14;68.30
33422;BME280;19763;55.798;37.782;2023-05-29T00:14:55;150328.88;;;12.09;69.36
33422;BME280;19763;55.798;37.782;2023-05-29T00:17:21;150322.44;;;12.06;68.66
33422;BME280;19763;55.798;37.782;2023-05-29T00:19:46;150313.47;;;12.03;69.03
33422;BME280;19763;55.798;37.782;2023-05-29T00:22:12;150295.50;;;11.96;69.72
33422;BME280;19763;55.798;37.782;2023-05-29T00:24:38;150299.34;;;11.97;71.08
33422;BME280;19763;55.798;37.782;2023-05-29T00:27:03;150300.63;;;11.98;69.71
33422;BME280;19763;55.798;37.782;2023-05-29T00:29:29;150301.88;;;11.98;69.15
33422;BME280;19763;55.798;37.782;2023-05-29T00:31:56;150299.34;;;11.97;69.17
33422;BME280;19763;55.798;37.782;2023-05-29T00:34:22;150290.34;;;11.94;69.66
33422;BME280;19763;55.798;37.782;2023-05-29T00:36:51;150290.34;;;11.94;68.90
33422;BME280;19763;55.798;37.782;2023-05-29T00:39:17;150296.78;;;11.96;69.73
33422;BME280;19763;55.798;37.782;2023-05-29T00:41:43;150298.03;;;11.97;69.16
33422;BME280;19763;55.798;37.782;2023-05-29T00:44:08;150298.03;;;11.97;69.68
33422;BME280;19763;55.798;37.782;2023-05-29T00:46:34;150280.00;;;11.89;69.64
33422;BME280;19763;55.798;37.782;2023-05-29T00:49:00;150238.97;;;11.73;70.00
33422;BME280;19763;55.798;37.782;2023-05-29T00:51:27;150265.91;;;11.84;69.46
33422;BME280;19763;55.798;37.782;2023-05-29T00:53:53;150260.78;;;11.82;68.62
33422;BME280;19763;55.798;37.782;2023-05-29T00:56:20;150276.16;;;11.88;68.32
33422;BME280;19763;55.798;37.782;2023-05-29T00:58:48;150260.78;;;11.82;69.19
33422;BME280;19763;55.798;37.782;2023-05-29T01:01:15;150277.44;;;11.88;68.69
33422;BME280;19763;55.798;37.782;2023-05-29T01:03:41;150250.50;;;11.78;68.93
33422;BME280;19763;55.798;37.782;2023-05-29T01:06:07;150256.94;;;11.80;68.98
33422;BME280;19763;55.798;37.782;2023-05-29T01:08:33;150271.06;;;11.86;68.76
33422;BME280;19763;55.798;37.782;2023-05-29T01:13:56;150256.94;;;11.80;69.24
33422;BME280;19763;55.798;37.782;2023-05-29T01:16:43;150242.81;;;11.74;68.44
33422;BME280;19763;55.798;37.782;2023-05-29T01:22:58;150245.34;;;11.75;69.46
33422;BME280;19763;55.798;37.782;2023-05-29T01:25:24;150231.22;;;11.70;69.57
33422;BME280;19763;55.798;37.782;2023-05-29T01:27:54;150236.38;;;11.72;69.96
33422;BME280;19763;55.798;37.782;2023-05-29T01:30:21;150236.38;;;11.72;69.49
33422;BME280;19763;55.798;37.782;2023-05-29T01:32:50;150244.09;;;11.75;69.40
33422;BME280;19763;55.798;37.782;2023-05-29T01:35:16;150231.22;;;11.70;68.94
33422;BME280;19763;55.798;37.782;2023-05-29T01:37:42;150247.94;;;11.77;70.28
33422;BME280;19763;55.798;37.782;2023-05-29T01:40:08;150228.69;;;11.69;69.76
33422;BME280;19763;55.798;37.782;2023-05-29T01:42:34;150240.22;;;11.73;69.00
33422;BME280;19763;55.798;37.782;2023-05-29T01:45:01;150246.66;;;11.76;68.84
33422;BME280;19763;55.798;37.782;2023-05-29T01:47:29;150259.47;;;11.81;68.94
33422;BME280;19763;55.798;37.782;2023-05-29T01:49:55;150253.09;;;11.79;68.93
33422;BME280;19763;55.798;37.782;2023-05-29T01:52:21;150274.91;;;11.87;68.72
33422;BME280;19763;55.798;37.782;2023-05-29T01:54:47;150290.34;;;11.94;67.14
33422;BME280;19763;55.798;37.782;2023-05-29T01:57:13;150281.34;;;11.90;67.89
33422;BME280;19763;55.798;37.782;2023-05-29T01:59:38;150273.59;;;11.87;68.27
33422;BME280;19763;55.798;37.782;2023-05-29T02:02:09;150241.50;;;11.74;67.99
33422;BME280;19763;55.798;37.782;2023-05-29T02:04:35;150292.91;;;11.95;68.28
33422;BME280;19763;55.798;37.782;2023-05-29T02:07:00;150298.03;;;11.97;68.94
33422;BME280;19763;55.798;37.782;2023-05-29T02:09:26;150317.31;;;12.04;67.85
33422;BME280;19763;55.798;37.782;2023-05-29T02:11:52;150341.72;;;12.14;67.63
33422;BME280;19763;55.798;37.782;2023-05-29T02:14:17;150353.25;;;12.19;67.49
33422;BME280;19763;55.798;37.782;2023-05-29T02:16:43;150349.41;;;12.17;66.97
33422;BME280;19763;55.798;37.782;2023-05-29T02:19:09;150351.94;;;12.18;66.64
33422;BME280;19763;55.798;37.782;2023-05-29T02:21:55;150380.19;;;12.30;67.09
33422;BME280;19763;55.798;37.782;2023-05-29T02:24:21;150394.34;;;12.35;66.88
33422;BME280;19763;55.798;37.782;2023-05-29T02:26:48;150402.03;;;12.38;66.46
33422;BME280;19763;55.798;37.782;2023-05-29T02:29:15;150421.31;;;12.46;66.52
33422;BME280;19763;55.798;37.782;2023-05-29T02:31:41;150430.28;;;12.50;66.04
33422;BME280;19763;55.798;37.782;2023-05-29T02:34:06;150429.00;;;12.49;66.51
33422;BME280;19763;55.798;37.782;2023-05-29T02:36:32;150440.56;;;12.54;66.75
33422;BME280;19763;55.798;37.782;2023-05-29T02:38:57;150464.97;;;12.64;66.49
33422;BME280;19763;55.798;37.782;2023-05-29T02:41:23;150488.13;;;12.73;66.70
33422;BME280;19763;55.798;37.782;2023-05-29T02:43:49;150488.13;;;12.73;66.11
33422;BME280;19763;55.798;37.782;2023-05-29T02:46:14;150500.94;;;12.78;66.21
33422;BME280;19763;55.798;37.782;2023-05-29T02:48:40;150500.94;;;12.78;65.96
33422;BME280;19763;55.798;37.782;2023-05-29T02:51:05;150506.09;;;12.80;65.45
33422;BME280;19763;55.798;37.782;2023-05-29T02:53:31;150524.06;;;12.87;65.37
33422;BME280;19763;55.798;37.782;2023-05-29T02:55:57;150545.91;;;12.96;65.34
33422;BME280;19763;55.798;37.782;2023-05-29T02:58:22;150560.03;;;13.02;65.42
33422;BME280;19763;55.798;37.782;2023-05-29T03:00:48;150571.59;;;13.06;64.76
33422;BME280;19763;55.798;37.782;2023-05-29T03:03:13;150580.63;;;13.10;65.13
33422;BME280;19763;55.798;37.782;2023-05-29T03:05:39;150597.28;;;13.17;64.14
33422;BME280;19763;55.798;37.782;2023-05-29T03:08:05;150619.19;;;13.25;64.16
33422;BME280;19763;55.798;37.782;2023-05-29T03:10:30;150624.28;;;13.27;63.72
33422;BME280;19763;55.798;37.782;2023-05-29T03:12:56;150648.75;;;13.37;63.21
33422;BME280;19763;55.798;37.782;2023-05-29T03:15:21;150668.03;;;13.45;64.23
33422;BME280;19763;55.798;37.782;2023-05-29T03:17:47;150696.31;;;13.56;63.27
33422;BME280;19763;55.798;37.782;2023-05-29T03:20:13;150707.84;;;13.61;63.87
33422;BME280;19763;55.798;37.782;2023-05-29T03:22:38;150709.16;;;13.61;62.84
33422;BME280;19763;55.798;37.782;2023-05-29T03:25:04;150724.59;;;13.68;63.55
33422;BME280;19763;55.798;37.782;2023-05-29T03:27:30;150723.31;;;13.67;61.95
33422;BME280;19763;55.798;37.782;2023-05-29T03:29:56;150738.72;;;13.73;62.55
33422;BME280;19763;55.798;37.782;2023-05-29T03:32:23;150750.28;;;13.78;61.84
33422;BME280;19763;55.798;37.782;2023-05-29T03:34:48;150772.19;;;13.87;61.77
33422;BME280;19763;55.798;37.782;2023-05-29T03:37:14;150776.03;;;13.88;60.76
33422;BME280;19763;55.798;37.782;2023-05-29T03:39:40;150804.31;;;14.00;60.78
33422;BME280;19763;55.798;37.782;2023-05-29T03:42:06;150850.59;;;14.18;60.84
33422;BME280;19763;55.798;37.782;2023-05-29T03:44:31;150878.91;;;14.29;59.08
33422;BME280;19763;55.798;37.782;2023-05-29T03:46:57;150884.03;;;14.31;59.59
33422;BME280;19763;55.798;37.782;2023-05-29T03:49:22;150898.16;;;14.37;59.02
33422;BME280;19763;55.798;37.782;2023-05-29T03:51:49;150925.19;;;14.48;58.36
33422;BME280;19763;55.798;37.782;2023-05-29T03:54:15;150934.19;;;14.52;58.56
33422;BME280;19763;55.798;37.782;2023-05-29T03:56:41;150920.03;;;14.46;58.03
33422;BME280;19763;55.798;37.782;2023-05-29T03:59:06;150944.47;;;14.56;58.78
33422;BME280;19763;55.798;37.782;2023-05-29T04:01:32;150917.44;;;14.45;57.96
33422;BME280;19763;55.798;37.782;2023-05-29T04:03:57;150935.44;;;14.52;57.03
33422;BME280;19763;55.798;37.782;2023-05-29T04:06:23;150980.53;;;14.70;57.53
33422;BME280;19763;55.798;37.782;2023-05-29T04:08:49;151006.25;;;14.80;57.40
33422;BME280;19763;55.798;37.782;2023-05-29T04:11:15;151019.13;;;14.86;57.45
33422;BME280;19763;55.798;37.782;2023-05-29T04:13:41;151046.19;;;14.96;56.13
33422;BME280;19763;55.798;37.782;2023-05-29T04:16:07;151061.59;;;15.02;55.31
33422;BME280;19763;55.798;37.782;2023-05-29T04:18:32;151071.91;;;15.07;54.26
33422;BME280;19763;55.798;37.782;2023-05-29T04:20:58;151086.06;;;15.12;55.16
33422;BME280;19763;55.798;37.782;2023-05-29T04:23:24;151093.75;;;15.15;56.06
33422;BME280;19763;55.798;37.782;2023-05-29T04:25:50;151114.38;;;15.24;55.03
33422;BME280;19763;55.798;37.782;2023-05-29T04:28:16;151111.78;;;15.23;55.34
33422;BME280;19763;55.798;37.782;2023-05-29T04:30:42;151114.38;;;15.24;54.04
33422;BME280;19763;55.798;37.782;2023-05-29T04:33:08;151124.66;;;15.28;53.50
33422;BME280;19763;55.798;37.782;2023-05-29T04:35:38;151164.56;;;15.44;53.35
33422;BME280;19763;55.798;37.782;2023-05-29T04:38:03;151132.38;;;15.31;53.62
33422;BME280;19763;55.798;37.782;2023-05-29T04:40:30;151189.03;;;15.53;54.01
33422;BME280;19763;55.798;37.782;2023-05-29T04:42:57;151212.16;;;15.63;53.55
33422;BME280;19763;55.798;37.782;2023-05-29T04:45:25;151235.38;;;15.72;53.78
33422;BME280;19763;55.798;37.782;2023-05-29T04:47:51;151240.50;;;15.74;52.79
33422;BME280;19763;55.798;37.782;2023-05-29T04:50:17;151266.28;;;15.84;52.65
33422;BME280;19763;55.798;37.782;2023-05-29T04:52:43;151274.00;;;15.87;51.96
33422;BME280;19763;55.798;37.782;2023-05-29T04:55:09;151308.78;;;16.01;53.15
33422;BME280;19763;55.798;37.782;2023-05-29T04:57:38;151311.34;;;16.02;52.49
33422;BME280;19763;55.798;37.782;2023-05-29T05:00:04;151346.13;;;16.16;52.05
33422;BME280;19763;55.798;37.782;2023-05-29T05:02:34;151375.75;;;16.28;50.03
33422;BME280;19763;55.798;37.782;2023-05-29T05:05:00;151431.16;;;16.50;50.01
33422;BME280;19763;55.798;37.782;2023-05-29T05:07:26;151469.75;;;16.66;48.71
33422;BME280;19763;55.798;37.782;2023-05-29T05:09:51;151487.78;;;16.73;47.88
33422;BME280;19763;55.798;37.782;2023-05-29T05:12:17;151521.31;;;16.86;47.77
33422;BME280;19763;55.798;37.782;2023-05-29T05:14:42;151558.69;;;17.01;48.10
33422;BME280;19763;55.798;37.782;2023-05-29T05:17:08;151610.28;;;17.22;46.65
33422;BME280;19763;55.798;37.782;2023-05-29T05:19:33;151643.75;;;17.35;44.75
33422;BME280;19763;55.798;37.782;2023-05-29T05:21:59;151764.94;;;17.84;43.85
33422;BME280;19763;55.798;37.782;2023-05-29T05:24:25;151799.81;;;17.98;44.67
33422;BME280;19763;55.798;37.782;2023-05-29T05:26:50;151811.41;;;18.02;44.90
33422;BME280;19763;55.798;37.782;2023-05-29T05:29:16;151811.41;;;18.02;43.67
33422;BME280;19763;55.798;37.782;2023-05-29T05:31:41;151806.28;;;18.00;45.67
33422;BME280;19763;55.798;37.782;2023-05-29T05:34:07;151803.69;;;17.99;42.74
33422;BME280;19763;55.798;37.782;2023-05-29T05:36:33;151819.13;;;18.05;43.14
33422;BME280;19763;55.798;37.782;2023-05-29T05:38:58;151832.03;;;18.10;41.12
33422;BME280;19763;55.798;37.782;2023-05-29T05:41:24;151847.50;;;18.17;41.59
33422;BME280;19763;55.798;37.782;2023-05-29T05:43:50;151823.00;;;18.07;41.39
33422;BME280;19763;55.798;37.782;2023-05-29T05:46:15;151846.22;;;18.16;42.30
33422;BME280;19763;55.798;37.782;2023-05-29T05:48:43;151842.38;;;18.15;41.48
33422;BME280;19763;55.798;37.782;2023-05-29T05:51:08;151875.88;;;18.28;42.03
33422;BME280;19763;55.798;37.782;2023-05-29T05:53:35;151877.19;;;18.28;40.25
33422;BME280;19763;55.798;37.782;2023-05-29T05:56:01;151891.38;;;18.34;40.41
33422;BME280;19763;55.798;37.782;2023-05-29T05:58:27;151909.44;;;18.41;40.21
33422;BME280;19763;55.798;37.782;2023-05-29T06:00:52;151888.78;;;18.33;39.37
33422;BME280;19763;55.798;37.782;2023-05-29T06:03:18;151841.03;;;18.14;38.47
33422;BME280;19763;55.798;37.782;2023-05-29T06:05:43;151865.56;;;18.24;39.07
33422;BME280;19763;55.798;37.782;2023-05-29T06:08:09;151841.03;;;18.14;38.82
33422;BME280;19763;55.798;37.782;2023-05-29T06:10:35;151839.78;;;18.14;38.24
33422;BME280;19763;55.798;37.782;2023-05-29T06:13:01;151878.47;;;18.29;39.14
33422;BME280;19763;55.798;37.782;2023-05-29T06:15:27;151846.22;;;18.16;34.94
33422;BME280;19763;55.798;37.782;2023-05-29T06:17:52;151884.94;;;18.32;35.14
33422;BME280;19763;55.798;37.782;2023-05-29T06:20:20;151901.66;;;18.38;36.08
33422;BME280;19763;55.798;37.782;2023-05-29T06:22:46;151927.50;;;18.49;37.75
33422;BME280;19763;55.798;37.782;2023-05-29T06:25:16;151931.38;;;18.50;37.56
33422;BME280;19763;55.798;37.782;2023-05-29T06:27:44;151930.03;;;18.50;38.23
33422;BME280;19763;55.798;37.782;2023-05-29T06:30:10;151913.31;;;18.43;36.63
33422;BME280;19763;55.798;37.782;2023-05-29T06:32:36;151970.06;;;18.66;37.93
33422;BME280;19763;55.798;37.782;2023-05-29T06:35:02;151945.56;;;18.56;37.88
33422;BME280;19763;55.798;37.782;2023-05-29T06:37:28;151961.03;;;18.62;36.03
33422;BME280;19763;55.798;37.782;2023-05-29T06:39:53;151948.09;;;18.57;35.25
33422;BME280;19763;55.798;37.782;2023-05-29T06:42:19;152003.59;;;18.79;35.64
33422;BME280;19763;55.798;37.782;2023-05-29T06:44:45;152013.91;;;18.83;37.46
33422;BME280;19763;55.798;37.782;2023-05-29T06:47:10;152030.75;;;18.90;35.81
33422;BME280;19763;55.798;37.782;2023-05-29T06:49:36;152046.22;;;18.96;35.79
33422;BME280;19763;55.798;37.782;2023-05-29T06:52:01;152025.56;;;18.88;34.78
33422;BME280;19763;55.798;37.782;2023-05-29T06:54:27;152019.06;;;18.85;35.30
33422;BME280;19763;55.798;37.782;2023-05-29T06:56:53;152051.38;;;18.98;35.14
33422;BME280;19763;55.798;37.782;2023-05-29T06:59:20;152079.75;;;19.09;35.70
33422;BME280;19763;55.798;37.782;2023-05-29T07:01:45;152090.09;;;19.13;35.84
33422;BME280;19763;55.798;37.782;2023-05-29T07:04:11;152108.16;;;19.21;36.11
33422;BME280;19763;55.798;37.782;2023-05-29T07:06:37;152123.66;;;19.27;34.98
33422;BME280;19763;55.798;37.782;2023-05-29T07:09:04;152097.81;;;19.17;33.94
33422;BME280;19763;55.798;37.782;2023-05-29T07:11:29;152069.41;;;19.05;33.28
33422;BME280;19763;55.798;37.782;2023-05-29T07:13:55;152126.22;;;19.28;34.46
33422;BME280;19763;55.798;37.782;2023-05-29T07:16:21;152148.16;;;19.37;36.02
33422;BME280;19763;55.798;37.782;2023-05-29T07:18:46;152099.13;;;19.17;33.48
33422;BME280;19763;55.798;37.782;2023-05-29T07:21:12;152091.41;;;19.14;33.27
33422;BME280;19763;55.798;37.782;2023-05-29T07:23:38;152121.06;;;19.26;33.53
33422;BME280;19763;55.798;37.782;2023-05-29T07:26:04;152163.66;;;19.43;34.16
33422;BME280;19763;55.798;37.782;2023-05-29T07:28:30;152194.59;;;19.55;34.35
33422;BME280;19763;55.798;37.782;2023-05-29T07:30:55;152149.47;;;19.37;32.68
33422;BME280;19763;55.798;37.782;2023-05-29T07:33:21;152185.59;;;19.52;32.90
33422;BME280;19763;55.798;37.782;2023-05-29T07:35:47;152180.41;;;19.49;33.59
33422;BME280;19763;55.798;37.782;2023-05-29T07:38:14;152226.88;;;19.68;33.81
33422;BME280;19763;55.798;37.782;2023-05-29T07:40:39;152226.88;;;19.68;33.18
33422;BME280;19763;55.798;37.782;2023-05-29T07:43:05;152212.72;;;19.62;33.89
33422;BME280;19763;55.798;37.782;2023-05-29T07:45:30;152230.78;;;19.70;34.96
33422;BME280;19763;55.798;37.782;2023-05-29T07:47:56;152189.47;;;19.53;32.92
33422;BME280;19763;55.798;37.782;2023-05-29T07:50:22;152256.66;;;19.80;33.48
33422;BME280;19763;55.798;37.782;2023-05-29T07:52:47;152281.19;;;19.90;34.73
33422;BME280;19763;55.798;37.782;2023-05-29T07:55:13;152283.75;;;19.91;33.93
33422;BME280;19763;55.798;37.782;2023-05-29T07:57:38;152316.00;;;20.04;33.81
33422;BME280;19763;55.798;37.782;2023-05-29T08:00:05;152312.16;;;20.02;33.44
33422;BME280;19763;55.798;37.782;2023-05-29T08:02:31;152344.44;;;20.15;32.85
33422;BME280;19763;55.798;37.782;2023-05-29T08:04:56;152387.03;;;20.32;33.41
33422;BME280;19763;55.798;37.782;2023-05-29T08:07:22;152368.97;;;20.25;32.36
33422;BME280;19763;55.798;37.782;2023-05-29T08:09:48;152301.81;;;19.98;30.97
33422;BME280;19763;55.798;37.782;2023-05-29T08:12:13;152281.19;;;19.90;32.40
33422;BME280;19763;55.798;37.782;2023-05-29T08:14:39;152336.69;;;20.12;32.76
33422;BME280;19763;55.798;37.782;2023-05-29T08:17:04;152322.47;;;20.06;33.42
33422;BME280;19763;55.798;37.782;2023-05-29T08:19:30;152350.91;;;20.17;33.41
33422;BME280;19763;55.798;37.782;2023-05-29T08:21:56;152406.44;;;20.40;34.39
33422;BME280;19763;55.798;37.782;2023-05-29T08:24:21;152362.50;;;20.22;33.59
33422;BME280;19763;55.798;37.782;2023-05-29T08:26:47;152312.16;;;20.02;32.65
33422;BME280;19763;55.798;37.782;2023-05-29T08:29:12;152394.78;;;20.35;33.11
33422;BME280;19763;55.798;37.782;2023-05-29T08:31:38;152433.53;;;20.50;35.20
33422;BME280;19763;55.798;37.782;2023-05-29T08:34:04;152447.75;;;20.56;33.07
33422;BME280;19763;55.798;37.782;2023-05-29T08:36:29;152464.56;;;20.63;34.53
33422;BME280;19763;55.798;37.782;2023-05-29T08:38:55;152431.00;;;20.49;32.25
33422;BME280;19763;55.798;37.782;2023-05-29T08:44:21;152469.69;;;20.65;31.45
33422;BME280;19763;55.798;37.782;2023-05-29T08:46:54;152513.72;;;20.82;32.43
33422;BME280;19763;55.798;37.782;2023-05-29T08:49:21;152534.34;;;20.91;31.64
33422;BME280;19763;55.798;37.782;2023-05-29T08:51:59;152493.03;;;20.74;30.75
33422;BME280;19763;55.798;37.782;2023-05-29T08:54:31;152575.72;;;21.07;32.61
33422;BME280;19763;55.798;37.782;2023-05-29T08:56:57;152556.34;;;20.99;32.17
33422;BME280;19763;55.798;37.782;2023-05-29T08:59:23;152601.53;;;21.17;32.54
33422;BME280;19763;55.798;37.782;2023-05-29T09:01:50;152631.28;;;21.29;34.46
33422;BME280;19763;55.798;37.782;2023-05-29T09:04:16;152602.88;;;21.18;30.76
33422;BME280;19763;55.798;37.782;2023-05-29T09:06:42;152608.00;;;21.20;31.42
33422;BME280;19763;55.798;37.782;2023-05-29T09:09:08;152552.47;;;20.98;30.07
33422;BME280;19763;55.798;37.782;2023-05-29T09:11:35;152615.75;;;21.23;31.08
33422;BME280;19763;55.798;37.782;2023-05-29T09:14:00;152535.66;;;20.91;30.99
33422;BME280;19763;55.798;37.782;2023-05-29T09:16:27;152619.63;;;21.25;32.34
33422;BME280;19763;55.798;37.782;2023-05-29T09:19:04;152635.16;;;21.31;31.67
33422;BME280;19763;55.798;37.782;2023-05-29T09:21:30;152668.75;;;21.44;30.68
33422;BME280;19763;55.798;37.782;2023-05-29T09:24:05;152529.19;;;20.89;30.23
33422;BME280;19763;55.798;37.782;2023-05-29T09:26:34;152419.34;;;20.45;29.26
33422;BME280;19763;55.798;37.782;2023-05-29T09:28:59;152542.13;;;20.94;30.30
33422;BME280;19763;55.798;37.782;2023-05-29T09:31:26;152478.81;;;20.68;29.05
33422;BME280;19763;55.798;37.782;2023-05-29T09:33:52;152551.16;;;20.97;30.73
33422;BME280;19763;55.798;37.782;2023-05-29T09:36:23;152518.84;;;20.84;27.94
33422;BME280;19763;55.798;37.782;2023-05-29T09:38:50;152469.69;;;20.65;28.84
33422;BME280;19763;55.798;37.782;2023-05-29T09:41:23;152539.53;;;20.93;30.46
33422;BME280;19763;55.798;37.782;2023-05-29T09:43:49;152599.00;;;21.16;30.05
33422;BME280;19763;55.798;37.782;2023-05-29T09:46:16;152650.66;;;21.37;31.03
33422;BME280;19763;55.798;37.782;2023-05-29T09:48:44;152567.97;;;21.04;30.35
33422;BME280;19763;55.798;37.782;2023-05-29T09:51:22;152609.28;;;21.20;30.98
33422;BME280;19763;55.798;37.782;2023-05-29T09:53:48;152593.78;;;21.14;29.47
33422;BME280;19763;55.798;37.782;2023-05-29T09:56:16;152606.72;;;21.19;30.25
33422;BME280;19763;55.798;37.782;2023-05-29T09:58:43;152546.00;;;20.95;30.03
33422;BME280;19763;55.798;37.782;2023-05-29T10:01:15;152589.91;;;21.13;30.35
33422;BME280;19763;55.798;37.782;2023-05-29T10:03:42;152635.16;;;21.31;31.88
33422;BME280;19763;55.798;37.782;2023-05-29T10:06:11;152624.81;;;21.27;30.89
33422;BME280;19763;55.798;37.782;2023-05-29T10:08:46;152636.44;;;21.31;30.71
33422;BME280;19763;55.798;37.782;2023-05-29T10:11:20;152655.81;;;21.39;30.75
33422;BME280;19763;55.798;37.782;2023-05-29T10:13:50;152676.50;;;21.47;31.26
33422;BME280;19763;55.798;37.782;2023-05-29T10:16:21;152686.91;;;21.51;30.07
33422;BME280;19763;55.798;37.782;2023-05-29T10:18:53;152703.72;;;21.58;31.44
33422;BME280;19763;55.798;37.782;2023-05-29T10:21:25;152717.94;;;21.64;31.33
33422;BME280;19763;55.798;37.782;2023-05-29T10:23:52;152666.16;;;21.43;30.30
33422;BME280;19763;55.798;37.782;2023-05-29T10:26:22;152681.69;;;21.49;31.18
33422;BME280;19763;55.798;37.782;2023-05-29T10:37:34;152679.09;;;21.48;31.21
33422;BME280;19763;55.798;37.782;2023-05-29T10:40:07;152741.16;;;21.73;32.08
33422;BME280;19763;55.798;37.782;2023-05-29T10:42:44;152702.38;;;21.58;29.79
33422;BME280;19763;55.798;37.782;2023-05-29T10:45:10;152710.19;;;21.61;30.49
33422;BME280;19763;55.798;37.782;2023-05-29T10:47:39;152742.50;;;21.74;30.51
33422;BME280;19763;55.798;37.782;2023-05-29T10:50:05;152682.97;;;21.50;30.94
33422;BME280;19763;55.798;37.782;2023-05-29T10:52:34;152710.19;;;21.61;31.02
33422;BME280;19763;55.798;37.782;2023-05-29T10:55:01;152655.81;;;21.39;30.32
33422;BME280;19763;55.798;37.782;2023-05-29T10:57:29;152730.81;;;21.69;31.37
33422;BME280;19763;55.798;37.782;2023-05-29T11:00:06;152739.91;;;21.72;31.56
33422;BME280;19763;55.798;37.782;2023-05-29T11:02:38;152759.28;;;21.80;31.36
33422;BME280;19763;55.798;37.782;2023-05-29T11:05:23;152759.28;;;21.80;30.92
33422;BME280;19763;55.798;37.782;2023-05-29T11:07:56;152728.28;;;21.68;29.60
33422;BME280;19763;55.798;37.782;2023-05-29T11:10:42;152692.09;;;21.53;29.02
33422;BME280;19763;55.798;37.782;2023-05-29T11:13:09;152701.13;;;21.57;31.59
33422;BME280;19763;55.798;37.782;2023-05-29T11:15:36;152741.16;;;21.73;32.06
33422;BME280;19763;55.798;37.782;2023-05-29T11:18:06;152706.31;;;21.59;30.16
33422;BME280;19763;55.798;37.782;2023-05-29T11:20:37;152716.59;;;21.63;29.20
33422;BME280;19763;55.798;37.782;2023-05-29T11:23:07;152724.41;;;21.66;30.88
33422;BME280;19763;55.798;37.782;2023-05-29T11:25:36;152761.88;;;21.81;29.71
33422;BME280;19763;55.798;37.782;2023-05-29T11:28:04;152627.44;;;21.28;28.32
33422;BME280;19763;55.798;37.782;2023-05-29T11:30:47;152692.09;;;21.53;29.71
33422;BME280;19763;55.798;37.782;2023-05-29T11:33:25;152682.97;;;21.50;29.82
33422;BME280;19763;55.798;37.782;2023-05-29T11:35:56;152697.25;;;21.55;29.50
33422;BME280;19763;55.798;37.782;2023-05-29T11:38:23;152758.00;;;21.80;30.03
33422;BME280;19763;55.798;37.782;2023-05-29T11:40:50;152741.16;;;21.73;28.24
33422;BME280;19763;55.798;37.782;2023-05-29T11:43:16;152726.97;;;21.67;28.07
33422;BME280;19763;55.798;37.782;2023-05-29T11:45:41;152707.59;;;21.60;27.74
33422;BME280;19763;55.798;37.782;2023-05-29T11:48:07;152741.16;;;21.73;29.47
33422;BME280;19763;55.798;37.782;2023-05-29T11:50:33;152764.47;;;21.82;27.95
33422;BME280;19763;55.798;37.782;2023-05-29T11:52:59;152781.28;;;21.89;29.12
33422;BME280;19763;55.798;37.782;2023-05-29T11:55:26;152773.50;;;21.86;28.15
33422;BME280;19763;55.798;37.782;2023-05-29T11:58:03;152750.25;;;21.77;27.18
33422;BME280;19763;55.798;37.782;2023-05-29T12:00:38;152719.22;;;21.64;27.84
33422;BME280;19763;55.798;37.782;2023-05-29T12:03:05;152747.66;;;21.76;28.46
33422;BME280;19763;55.798;37.782;2023-05-29T12:05:52;152738.63;;;21.72;28.83
33422;BME280;19763;55.798;37.782;2023-05-29T12:08:24;152742.50;;;21.74;29.55
33422;BME280;19763;55.798;37.782;2023-05-29T12:10:52;152754.13;;;21.78;29.78
33422;BME280;19763;55.798;37.782;2023-05-29T12:13:19;152772.22;;;21.85;28.75
33422;BME280;19763;55.798;37.782;2023-05-29T12:15:45;152760.59;;;21.81;29.27
33422;BME280;19763;55.798;37.782;2023-05-29T12:18:13;152774.81;;;21.86;29.58
33422;BME280;19763;55.798;37.782;2023-05-29T12:20:39;152765.75;;;21.83;28.90
33422;BME280;19763;55.798;37.782;2023-05-29T12:23:05;152751.53;;;21.77;28.63
33422;BME280;19763;55.798;37.782;2023-05-29T12:25:30;152726.97;;;21.67;28.54
33422;BME280;19763;55.798;37.782;2023-05-29T12:27:56;152795.47;;;21.95;29.66
33422;BME280;19763;55.798;37.782;2023-05-29T12:30:23;152791.59;;;21.93;29.43
33422;BME280;19763;55.798;37.782;2023-05-29T12:32:51;152798.06;;;21.96;30.52
33422;BME280;19763;55.798;37.782;2023-05-29T12:35:23;152726.97;;;21.67;28.23
33422;BME280;19763;55.798;37.782;2023-05-29T12:37:59;152736.03;;;21.71;28.74
33422;BME280;19763;55.798;37.782;2023-05-29T12:42:57;152748.91;;;21.76;30.80
33422;BME280;19763;55.798;37.782;2023-05-29T12:45:25;152711.47;;;21.61;30.88
33422;BME280;19763;55.798;37.782;2023-05-29T12:48:01;152716.59;;;21.63;29.88
33422;BME280;19763;55.798;37.782;2023-05-29T12:50:27;152716.59;;;21.63;29.85
33422;BME280;19763;55.798;37.782;2023-05-29T12:53:14;152721.81;;;21.65;29.83
33422;BME280;19763;55.798;37.782;2023-05-29T12:55:42;152736.03;;;21.71;30.42
33422;BME280;19763;55.798;37.782;2023-05-29T12:58:12;152719.22;;;21.64;29.82
33422;BME280;19763;55.798;37.782;2023-05-29T13:00:40;152750.25;;;21.77;30.43